Terminal Aerodrome Forecast
Issued by NWS Dallas/Fort Worth, TX

Home | Current Version | Previous Version | Text Only | Print | Product List | Glossary On
Versions: 1 2 3 4 5 6 7 8 9 10 11 12 13 14 15 16 17 18 19 20 21 22 23 24 25 26 27 28
000
FTUS44 KFWD 201455 AAB
TAFDFW
TAF AMD
KDFW 201455Z 2015/2118 18015KT P6SM SCT017
      TEMPO 2015/2017 BKN017
     FM210600 18015KT P6SM BKN012
     FM211700 21015KT P6SM VCSH BKN028=

USA.gov is the U.S. government's official web portal to all federal, state and local government web resources and services.